Boulder City, Nevada Weather observations

Data are for observation ending at time listed.
 Day   Time    Ave.   Ave.  Ave.  Vector   Max.   Stn.    Total    Solar   Ave.  
  of    of     Air    Rel.  Wind   Wind    Wind   Baro.  Precip.   Rad.    Soil  
Year   Day     Temp.  Hum.  Speed  Dir.    Gust   Pres.                    Temp. 
2014   (PST)    F      %     mph   deg.    mph     mb.     in.     W/m2     F   
------------------------------------------------------------------------------
 240    9:50   90.3    17    3.4    34      6.6   935.9    0.00     191    86.8
 240   10:00   90.1    17    4.0    29      7.7   935.8    0.00     281    87.0
 240   10:10   90.0    17    4.4    22      9.7   935.7    0.00     596    87.3
 240   10:20   90.6    16    4.3    16      8.8   935.6    0.00     410    87.6
 240   10:30   91.3    16    4.5    21      8.8   935.5    0.00     561    87.9
 240   10:40   91.7    16    3.7    23     11.5   935.5    0.00     741    88.2
 240   10:50   92.3    15    3.6    28      8.4   935.4    0.00     822    88.6
 240   11:00   92.7    15    3.9    30      9.6   935.3    0.00     723    88.9
 240   11:10   92.9    15    3.2    35      7.7   935.2    0.00     710    89.2
 240   11:20   93.2    14    3.5    21      7.6   935.0    0.00     778    89.5
 240   11:30   93.8    14    3.5    32      8.8   934.8    0.00     873    89.9
 240   11:40   94.6    14    3.0    26      6.4   934.6    0.00     892    90.2
 240   11:50   95.1    14    3.7    64      7.4   934.4    0.00     891    90.6
 240   12:00   95.8    13    3.5    66      6.9   934.3    0.00     890    90.9
 240   12:10   96.1    13    3.4    35      6.8   934.2    0.00     885    91.3
 240   12:20   96.0    13    3.0    13      5.8   934.1    0.00     880    91.6
 240   12:30   96.6    13    3.2    25      8.3   934.0    0.00     874    91.9
 240   12:40   97.4    12    2.8    28      7.5   933.9    0.00     866    92.2
 240   12:50   97.6    12    3.1    46      6.9   933.7    0.00     854    92.5
 240   13:00   98.0    12    3.7    36      9.3   933.6    0.00     842    92.8
 240   13:10   98.5    12    3.7    32      9.3   933.4    0.00     829    93.0
 240   13:20   98.4    11    4.1    31      8.8   933.2    0.00     813    93.2
 240   13:30   98.4    11    3.9    27      7.8   933.1    0.00     796    93.4
 240   13:40   99.0    11    3.1    48      6.9   933.0    0.00     780    93.5
 240   13:50   99.1    11    4.8    11      9.6   932.9    0.00     761    93.7
 240   14:00   99.3    10    3.5    21      7.7   932.8    0.00     741    93.8
 240   14:10  100.3    10    3.6    16      8.6   932.7    0.00     718    93.9
 240   14:20   99.6    10    3.4    26      7.7   932.6    0.00     695    94.0
 240   14:30  100.5    10    3.0    26      9.7   932.5    0.00     671    94.0
 240   14:40  100.3    10    2.9    17      7.5   932.4    0.00     646    94.1
 240   14:50  100.3    10    2.7    20      7.0   932.3    0.00     616    94.1
 240   15:00  100.7    10    2.1     1      8.1   932.2    0.00     587    94.2
 240   15:10  100.8    10    3.5     9      8.3   932.0    0.00     557    94.2
 240   15:20  100.0    10    4.5     3      8.6   931.9    0.00     525    94.2
 240   15:30   99.5    10    4.4    18      7.6   931.7    0.00     495    94.1
 240   15:40   99.4    10    4.6    15     11.1   931.6    0.00     463    94.1
 240   15:50   99.3    10    4.7    11     10.4   931.5    0.00     431    94.0
 240   16:00   99.4    10    3.3    13      8.1   931.4    0.00     397    94.0
 240   16:10   99.6    10    3.4    26      7.9   931.3    0.00     363    94.0
 240   16:20   99.4    10    4.1    22      8.3   931.2    0.00     329    93.9
 240   16:30   98.9    10    4.4    12      8.6   931.1    0.00     295    93.8
 240   16:40   99.0    10    2.8    12      6.6   931.0    0.00     261    93.8
 240   16:50   98.9    10    2.8    10      6.3   930.9    0.00     227    93.7
 240   17:00   98.7    10    2.2    21      5.3   930.8    0.00     193    93.6
 240   17:10   98.2    10    2.6    13      6.4   930.7    0.00     162    93.6
 240   17:20   97.7    10    2.8    12      5.2   930.6    0.00     132    93.5
 240   17:30   96.8    11    1.4     8      3.8   930.4    0.00     100    93.4
 240   17:40   95.5    12    0.5    10      2.2   930.4    0.00      50    93.3
 240   17:50   94.0    12    0.8    11      2.5   930.2    0.00      18    93.2
 240   18:00   93.3    12    0.5    22      2.5   930.2    0.00      13    93.1
 240   18:10   92.5    12    0.2   290      1.2   930.1    0.00       8    93.0
 240   18:20   92.0    12    0.7   268      1.5   930.1    0.00       4    92.9
 240   18:30   91.7    12    1.6   296      2.6   930.0    0.00       0    92.8
 240   18:40   90.9    13    1.4   276      2.6   930.0    0.00       0    92.8
 240   18:50   89.3    14    1.6   221      2.2   930.0    0.00       0    92.7
 240   19:00   88.3    14    1.6   219      2.6   930.0    0.00       0    92.6
 240   19:10   87.6    14    1.8   226      2.6   929.9    0.00       0    92.5
 240   19:20   87.3    14    1.5   223      2.2   929.9    0.00       0    92.3
 240   19:30   87.1    14    1.5   222      2.0   929.9    0.00       0    92.2
 240   19:40   87.0    14    2.1   218      2.8   930.0    0.00       0    92.1
 240   19:50   87.3    14    2.7   228      3.8   930.1    0.00       0    92.0
 240   20:00   87.3    14    2.9   231      3.9   930.2    0.00       0    91.9
 240   20:10   86.7    15    2.5   229      3.7   930.2    0.00       0    91.8
 240   20:20   86.5    14    2.1   225      3.0   930.2    0.00       0    91.7
 240   20:30   85.9    15    3.0   220      4.4   930.2    0.00       0    91.6
 240   20:40   86.0    15    3.2   241      4.8   930.2    0.00       0    91.4
 240   20:50   87.0    14    4.6   228      6.3   930.3    0.00       0    91.3
 240   21:00   88.4    14    4.2   236      5.8   930.3    0.00       0    91.2
 240   21:10   88.4    13    4.5   242      7.9   930.3    0.00       0    91.1
 240   21:20   88.9    13    5.4   245      7.2   930.3    0.00       0    91.0
 240   21:30   88.9    13    4.3   239      6.4   930.3    0.00       0    90.9
 240   21:40   88.6    13    4.6   241      6.3   930.3    0.00       0    90.8
 240   21:50   87.7    14    3.5   224      5.0   930.3    0.00       0    90.7
 240   22:00   86.6    14    4.3   219      7.9   930.3    0.00       0    90.6
 240   22:10   87.1    14    4.7   228      6.4   930.2    0.00       0    90.5
 240   22:20   87.3    14    5.1   237      7.3   930.2    0.00       0    90.4
 240   22:30   87.7    13    5.2   241      8.3   930.1    0.00       0    90.3
 240   22:40   88.1    13    5.6   245      7.9   930.1    0.00       0    90.2
 240   22:50   88.3    13    5.8   243      7.9   930.1    0.00       0    90.1
 240   23:00   88.5    13    5.6   243      8.0   930.1    0.00       0    90.1
 240   23:10   87.9    13    5.1   241      8.4   930.1    0.00       0    90.0
 240   23:20   87.9    13    5.0   238      7.5   930.0    0.00       0    89.9
 240   23:30   87.4    13    5.5   243      8.3   929.9    0.00       0    89.8
 240   23:40   87.3    13    5.4   238      7.7   929.9    0.00       0    89.7
 240   23:50   87.0    13    5.2   236      7.3   929.9    0.00       0    89.6
 241    0:00   86.8    13    5.2   241      7.8   929.9    0.00       0    89.5
 241    0:10   87.0    13    5.3   241      8.5   929.8    0.00       0    89.5
 241    0:20   86.6    13    4.6   240      6.7   929.8    0.00       0    89.4
 241    0:30   86.5    14    4.4   234      6.1   929.7    0.00       0    89.3
 241    0:40   86.4    14    4.2   231      6.1   929.7    0.00       0    89.2
 241    0:50   86.2    14    4.5   240      6.7   929.5    0.00       0    89.2
 241    1:00   86.1    14    4.6   240      6.2   929.4    0.00       0    89.1
 241    1:10   85.9    14    4.5   242      6.1   929.4    0.00       0    89.0
 241    1:20   85.6    14    3.3   229      5.8   929.3    0.00       0    88.9
 241    1:30   84.2    15    3.0   224      4.5   929.3    0.00       0    88.8
 241    1:40   84.3    15    3.3   229      4.6   929.3    0.00       0    88.7
 241    1:50   84.0    15    3.0   218      4.2   929.2    0.00       0    88.7
 241    2:00   82.7    16    2.9   208      4.3   929.1    0.00       0    88.6
 241    2:10   82.3    16    3.3   212      4.2   929.1    0.00       0    88.5
 241    2:20   82.4    16    2.6   218      3.3   929.0    0.00       0    88.4
 241    2:30   81.8    16    2.6   210      3.6   929.1    0.00       0    88.3
 241    2:40   81.0    17    1.5   239      3.1   929.2    0.00       0    88.2
 241    2:50   80.8    17    2.0   231      3.3   929.1    0.00       0    88.2
 241    3:00   80.8    17    2.7   240      3.9   929.1    0.00       0    88.1
 241    3:10   78.4    20    2.9   234      4.1   929.0    0.00       0    88.0
 241    3:20   77.3    21    3.1   234      4.0   929.0    0.00       0    87.9
 241    3:30   76.7    21    3.0   225      3.7   929.0    0.00       0    87.9
 241    3:40   76.7    21    2.2   232      3.2   929.0    0.00       0    87.8
 241    3:50   76.8    21    1.6   214      2.7   929.0    0.00       0    87.7
 241    4:00   77.6    20    1.1   228      1.8   929.1    0.00       0    87.6
 241    4:10   76.9    21    1.6   226      2.7   929.1    0.00       0    87.5
 241    4:20   75.9    23    1.2   234      2.3   929.1    0.00       0    87.5
 241    4:30   75.9    22    1.1   268      2.5   929.1    0.00       0    87.3
 241    4:40   75.2    23    2.2   232      3.0   929.1    0.00       0    87.3
 241    4:50   75.8    22    2.3   233      3.5   929.1    0.00       0    87.2
 241    5:00   75.0    23    2.1   221      2.9   929.2    0.00       0    87.1
 241    5:10   74.8    23    2.8   218      3.7   929.3    0.00       3    87.0
 241    5:20   74.6    24    2.5   230      3.6   929.4    0.00       6    86.9
 241    5:30   74.6    24    2.6   215      3.4   929.5    0.00      22    86.8
 241    5:40   75.4    23    2.8   217      3.7   929.6    0.00      55    86.8
 241    5:50   76.3    24    1.8   222      2.6   929.6    0.00      89    86.7
 241    6:00   78.6    23    1.1   213      1.6   929.7    0.00     120    86.6
 241    6:10   82.5    21    0.2   290      0.8   929.8    0.00     151    86.5
 241    6:20   84.3    20    1.0   223      1.5   930.1    0.00     184    86.5
 241    6:30   85.5    18    1.4   230      1.8   930.3    0.00     217    86.4
 241    6:40   87.0    16    1.2   180      2.5   930.4    0.00     252    86.3
 241    6:50   88.8    15    1.2   191      2.3   930.6    0.00     286    86.2
 241    7:00   89.9    15    1.2   181      2.6   930.9    0.00     320    86.2
 241    7:10   90.8    15    0.9   173      3.1   931.2    0.00     354    86.1
 241    7:20   92.0    14    0.7    21      2.4   931.3    0.00     387    86.1
 241    7:30   90.8    15    1.4    37      3.1   931.4    0.00     422    86.1
 241    7:40   90.1    17    1.5    15      3.0   931.6    0.00     455    86.1
 241    7:50   89.5    16    1.9    17      3.7   931.7    0.00     487    86.1
 241    8:00   89.3    17    2.2    27      3.9   931.7    0.00     519    86.1
 241    8:10   89.5    16    1.9    25      3.6   931.7    0.00     550    86.2
 241    8:20   90.1    16    1.8    38      3.4   931.8    0.00     579    86.3
 241    8:30   90.9    16    2.1    35      4.7   931.8    0.00     608    86.4
 241    8:40   90.6    17    2.3    47      5.3   931.9    0.00     635    86.5
 241    8:50   90.9    17    2.8    38      5.5   932.0    0.00     661    86.6
 241    9:00   90.3    18    3.2    26      5.6   932.0    0.00     685    86.8
 241    9:10   90.8    16    2.9    26      5.9   932.0    0.00     709    87.0
 241    9:20   91.1    16    3.5    18      7.3   932.0    0.00     732    87.2
 241    9:30   91.3    15    3.8    27      7.2   932.0    0.00     724    87.4
 241    9:40   91.7    15    3.1    29      8.1   932.0    0.00     690    87.7

Return to Boulder City, Nevada graphs page.


Western Regional Climate Center,wrcc@dri.edu